Metar Report
Metar
METAR KN23 192056Z AUTO 00000KT 10SM BKN018 OVC050 02/01 A3001 A02 27
METAR KN23 191956Z AUTO 00000KT 7SM -RA BKN018 OVC027 03/00 A3001 A02 26
METAR KN23 191856Z AUTO 00000KT 10SM BKN019 OVC031 03/01 A3003 A02 25
METAR KN23 191756Z AUTO 00000KT 10SM BKN016 OVC030 03/01 A3005 A02 24
METAR KN23 191656Z AUTO 28003KT 7SM OVC032 03/02 A3008 A02 23
METAR KN23 191556Z AUTO 00000KT 4SM BR OVC009 02/02 A3010 A02 22
METAR KN23 191456Z AUTO 00000KT 4SM BR OVC011 02/02 A3010 A02 21
METAR KN23 191356Z AUTO 00000KT 2SM BR OVC009 00/00 A3011 A02 20
METAR KN23 191255Z AUTO 00000KT 1 3/4SM BR OVC009 00/00 A3011 A02 19
METAR KN23 191156Z AUTO 00000KT 2SM BR SCT001 OVC009 00/00 A3010 A02 18
METAR KN23 191056Z AUTO 00000KT 2 1/2SM BR SCT006 OVC013 00/00 A3010 A02 17
METAR KN23 190956Z AUTO 00000KT 2 1/2SM BR OVC013 00/00 A3010 A02 16
METAR KN23 190856Z AUTO 00000KT 4SM BR OVC015 00/00 A3010 A02 P0001 15
METAR KN23 190756Z AUTO 00000KT 4SM RA OVC017 00/00 A3010 A02 14
METAR KN23 190656Z AUTO 00000KT 3SM RA OVC019 00/00 A3011 A02 P0001 13
METAR KN23 190556Z AUTO 00000KT 3SM RA OVC019 00/00 A3013 A02 P0001 12
METAR KN23 190456Z AUTO 00000KT 5SM RA OVC019 00/00 A3013 A02 P0001 11
METAR KN23 190356Z AUTO 00000KT 5SM RA OVC021 00/M01 A3015 A02 10
METAR KN23 190256Z AUTO 28003KT 7SM +RA OVC021 00/M02 A3017 A02 P0001 9
METAR KN23 190156Z AUTO 00000KT 10SM -RA OVC023 00/M02 A3018 A02 8
METAR KN23 190056Z AUTO 16003KT 7SM RA OVC023 00/M02 A3018 A02 7
METAR KN23 182356Z AUTO 00000KT 10SM SCT025 SCT030 OVC065 00/M02 A3018 A02 6
METAR KN23 182256Z AUTO 00000KT 7SM RA SCT020 OVC029 00/M01 A3021 A02 5
METAR KN23 182156Z AUTO 00000KT 10SM OVC027 00/M02 A3021 A02 4
METAR KN23 182056Z AUTO 05003KT 7SM OVC027 00/M03 A3021 A02 3
METAR KN23 181956Z AUTO 00000KT 10SM BKN029 OVC037 01/M03 A3022 A02 2
METAR KN23 181856Z AUTO 20003KT 5SM HZ BKN030 OVC039 02/M04 A3025 A02 1
METAR KN23 181756Z AUTO 00000KT 10SM SCT038 OVC044 01/M04 A3025 A02 0
METAR KN23 181656Z AUTO 00000KT 10SM OVC031 00/M04 A3029 A02 69
METAR KN23 181556Z AUTO 00000KT 10SM BKN031 OVC060 00/M04 A3032 A02 68
METAR KN23 181456Z AUTO 00000KT 10SM SCT030 SCT035 OVC070 00/M04 A3032 A02 67
METAR KN23 181356Z AUTO 00000KT 10SM BKN033 BKN065 OVC085 M01/M06 A3033 A02 66
METAR KN23 181256Z AUTO 00000KT 10SM OVC037 M02/M06 A3033 A02 65
METAR KN23 181156Z AUTO 00000KT 10SM OVC039 M02/M07 A3033 A02 64
METAR KN23 181056Z AUTO 00000KT 10SM OVC041 M02/M06 A3031 A02 63
METAR KN23 180956Z AUTO 04004KT 10SM OVC039 M02/M06 A3031 A02 62
METAR KN23 180856Z AUTO 04004KT 10SM OVC037 M01/M04 A3029 A02 61
METAR KN23 180756Z AUTO 00000KT 10SM OVC037 00/M03 A3030 A02 60
METAR KN23 180656Z AUTO 32003KT 10SM BKN030 OVC035 00/M03 A3030 A02 59
METAR KN23 180556Z AUTO 00000KT 10SM SCT025 OVC034 00/M03 A3029 A02 58
METAR KN23 180456Z AUTO 32003KT 10SM SCT021 BKN029 OVC038 00/M03 A3028 A02 57
METAR KN23 180356Z AUTO 30004KT 10SM BKN026 OVC034 00/M03 A3027 A02 56
METAR KN23 180256Z AUTO 28003KT 10SM SCT028 OVC044 00/M04 A3027 A02 55
METAR KN23 180156Z AUTO 29006KT 10SM SCT038 OVC046 00/M04 A3025 A02 54
METAR KN23 180056Z AUTO 30006KT 10SM OVC034 01/M03 A3024 A02 53
METAR KN23 172356Z AUTO 31005KT 10SM SCT022 OVC041 01/M01 A3023 A02 52
METAR KN23 172256Z AUTO 28003KT 10SM SCT020 SCT026 OVC039 01/M01 A3020 A02 51
METAR KN23 172156Z AUTO 28007KT 10SM OVC022 02/M01 A3018 A02 50
METAR KN23 172056Z AUTO 26003KT 10SM BKN031 OVC037 02/M01 A3015 A02 49
METAR KN23 171956Z AUTO 00000KT 10SM BKN040 OVC046 02/00 A3013 A02 48
METAR KN23 171856Z AUTO 30007KT 5SM DZ BKN017 OVC024 02/M01 A3013 A02 47
METAR KN23 171756Z AUTO 26004KT 10SM SCT023 BKN031 OVC040 03/M01 A3011 A02 46
METAR KN23 171656Z AUTO 27006KT 10SM BKN022 OVC026 03/M01 A3012 A02 45
METAR KN23 171556Z AUTO 27004KT 10SM OVC024 03/M01 A3013 A02 44
METAR KN23 171456Z AUTO 25004KT 10SM SCT032 OVC039 03/M01 A3012 A02 43
METAR KN23 171356Z AUTO 26004KT 10SM OVC039 02/M01 A3011 A02 42
METAR KN23 171256Z AUTO 23004KT 10SM OVC041 02/M01 A3010 A02 41
METAR KN23 171156Z AUTO 29005KT 10SM SCT024 BKN039 OVC047 02/00 A3007 A02 40
METAR KN23 171056Z AUTO 26003KT 10SM OVC050 02/00 A3004 A02 39
METAR KN23 170956Z AUTO 25004KT 10SM BKN029 OVC034 02/01 A3001 A02 38
METAR KN23 170856Z AUTO 25005KT 10SM BKN015 BKN033 OVC044 02/01 A2998 A02 37
METAR KN23 170756Z AUTO 24005KT 10SM OVC015 02/01 A2997 A02 36
METAR KN23 170656Z AUTO 27004KT 10SM OVC014 01/00 A2994 A02 35
METAR KN23 170556Z AUTO 25003KT 10SM OVC013 00/00 A2993 A02 34
METAR KN23 170456Z AUTO 27005KT 5SM -RA OVC012 00/00 A2990 A02 33
METAR KN23 170356Z AUTO 25006KT 5SM BR OVC016 00/M01 A2989 A02 32
METAR KN23 170256Z AUTO 25008KT 210V280 7SM OVC016 01/M01 A2987 A02 31
METAR KN23 170156Z AUTO 25006KT 10SM OVC020 02/M01 A2984 A02 30
METAR KN23 170056Z AUTO 26007G14KT 220V280 10SM OVC022 02/M01 A2982 A02 29
METAR KN23 162356Z AUTO 26007KT 230V290 10SM BKN022 OVC026 02/M01 A2980 A02 28